createdAt,value
2023-04-20T00:02:21.964Z,37.30
2023-04-20T00:05:16.451Z,37.30
2023-04-20T00:08:09.649Z,37.30
2023-04-20T00:11:02.884Z,37.30
2023-04-20T00:13:56.012Z,37.20
2023-04-20T00:16:49.795Z,37.20
2023-04-20T00:19:43.267Z,37.20
2023-04-20T00:22:37.390Z,37.30
2023-04-20T00:25:30.591Z,37.20
2023-04-20T00:28:24.162Z,37.30
2023-04-20T00:31:16.930Z,37.20
2023-04-20T00:34:10.100Z,37.20
2023-04-20T00:37:03.058Z,37.20
2023-04-20T00:39:58.686Z,37.00
2023-04-20T00:42:52.046Z,37.00
2023-04-20T00:45:45.145Z,37.00
2023-04-20T00:48:38.286Z,37.00
2023-04-20T00:51:31.758Z,37.00
2023-04-20T00:54:26.224Z,36.90
2023-04-20T00:57:23.701Z,36.90
2023-04-20T01:00:18.208Z,36.80
2023-04-20T01:03:11.168Z,36.80
2023-04-20T01:06:04.319Z,36.80
2023-04-20T01:08:56.709Z,36.80
2023-04-20T01:11:50.541Z,36.80
2023-04-20T01:14:45.212Z,36.80
2023-04-20T01:17:39.545Z,36.80
2023-04-20T01:20:34.519Z,36.80
2023-04-20T01:23:29.450Z,36.70
2023-04-20T01:26:24.627Z,36.70
2023-04-20T01:29:18.328Z,36.80
2023-04-20T01:32:11.261Z,36.70
2023-04-20T01:35:05.375Z,36.80
2023-04-20T01:37:57.993Z,36.80
2023-04-20T01:40:52.716Z,36.80
2023-04-20T01:43:46.012Z,36.80
2023-04-20T01:46:40.082Z,36.90
2023-04-20T01:49:33.528Z,36.80
2023-04-20T01:52:27.418Z,36.70
2023-04-20T01:55:20.693Z,36.80
2023-04-20T01:58:15.663Z,36.70
2023-04-20T02:01:09.130Z,37.30
2023-04-20T02:04:02.294Z,36.60
2023-04-20T02:06:54.998Z,36.60
2023-04-20T02:09:47.855Z,36.60
2023-04-20T02:12:41.212Z,36.50
2023-04-20T02:15:35.684Z,36.50
2023-04-20T02:18:30.064Z,36.40
2023-04-20T02:21:23.295Z,36.30
2023-04-20T02:24:16.076Z,36.30
2023-04-20T02:27:09.289Z,36.30
2023-04-20T02:30:02.403Z,36.30
2023-04-20T02:32:56.480Z,36.20
2023-04-20T02:35:48.994Z,36.40
2023-04-20T02:38:42.326Z,36.50
2023-04-20T02:41:35.746Z,36.50
2023-04-20T02:44:29.547Z,36.60
2023-04-20T02:47:23.383Z,36.60
2023-04-20T02:50:17.364Z,36.60
2023-04-20T02:53:10.527Z,36.60
2023-04-20T02:56:03.290Z,36.70
2023-04-20T02:58:56.948Z,36.70
2023-04-20T03:01:50.341Z,36.70
2023-04-20T03:04:43.412Z,36.60
2023-04-20T03:07:38.631Z,36.60
2023-04-20T03:10:32.027Z,36.60
2023-04-20T03:13:25.013Z,36.60
2023-04-20T03:16:18.941Z,36.60
2023-04-20T03:19:12.510Z,36.60
2023-04-20T03:22:05.344Z,36.60
2023-04-20T03:24:59.812Z,36.60
2023-04-20T03:27:53.155Z,36.70
2023-04-20T03:30:45.890Z,36.70
2023-04-20T03:33:39.305Z,36.70
2023-04-20T03:36:32.739Z,36.70
2023-04-20T03:39:26.411Z,36.80
2023-04-20T03:42:20.469Z,36.70
2023-04-20T03:45:14.661Z,36.80
2023-04-20T03:48:08.156Z,36.70
2023-04-20T03:51:01.139Z,36.80
2023-04-20T03:53:54.367Z,36.80
2023-04-20T03:56:47.772Z,36.90
2023-04-20T03:59:42.360Z,36.90
2023-04-20T04:02:37.998Z,36.90
2023-04-20T04:05:31.694Z,36.90
2023-04-20T04:08:25.096Z,37.00
2023-04-20T04:11:17.888Z,37.00
2023-04-20T04:14:11.920Z,37.00
2023-04-20T04:17:07.844Z,37.10
2023-04-20T04:20:01.358Z,37.20
2023-04-20T04:22:54.332Z,37.20
2023-04-20T04:25:47.259Z,37.20
2023-04-20T04:28:40.457Z,37.20
2023-04-20T04:31:34.303Z,37.30
2023-04-20T04:34:29.738Z,37.30
2023-04-20T04:37:23.040Z,37.30
2023-04-20T04:40:16.574Z,37.40
2023-04-20T04:43:10.969Z,37.40
2023-04-20T04:46:09.841Z,37.40
2023-04-20T04:49:04.270Z,37.40
2023-04-20T04:51:58.516Z,37.40
2023-04-20T04:54:51.430Z,37.40
2023-04-20T04:57:44.437Z,37.40
2023-04-20T05:00:37.456Z,37.40
2023-04-20T05:03:30.725Z,37.40
2023-04-20T05:06:24.440Z,37.40
2023-04-20T05:09:19.152Z,37.40
2023-04-20T05:12:12.364Z,37.40
2023-04-20T05:15:06.462Z,37.40
2023-04-20T05:17:59.476Z,37.50
2023-04-20T05:20:52.230Z,37.50
2023-04-20T05:23:45.297Z,37.50
2023-04-20T05:26:39.345Z,37.50
2023-04-20T05:29:32.406Z,37.50
2023-04-20T05:32:25.801Z,37.60
2023-04-20T05:35:19.231Z,37.80
2023-04-20T05:38:12.439Z,38.10
2023-04-20T05:41:05.685Z,38.30
2023-04-20T05:43:59.842Z,38.40
2023-04-20T05:46:53.593Z,38.50
2023-04-20T05:49:46.396Z,38.60
2023-04-20T05:52:39.384Z,38.70
2023-04-20T05:55:32.286Z,38.80
2023-04-20T05:58:25.570Z,38.70
2023-04-20T06:01:19.716Z,38.60
2023-04-20T06:04:12.991Z,38.60
2023-04-20T06:07:06.458Z,38.70
2023-04-20T06:10:00.933Z,38.80
2023-04-20T06:12:54.372Z,38.90
2023-04-20T06:15:47.694Z,39.00
2023-04-20T06:18:42.992Z,39.60
2023-04-20T06:21:36.284Z,39.10
2023-04-20T06:24:29.387Z,39.20
2023-04-20T06:27:22.557Z,39.20
2023-04-20T06:30:16.170Z,39.30
2023-04-20T06:33:12.257Z,39.30
2023-04-20T06:36:09.288Z,39.40
2023-04-20T06:39:02.539Z,39.40
2023-04-20T06:41:56.663Z,39.50
2023-04-20T06:44:49.609Z,39.60
2023-04-20T06:47:42.752Z,39.60
2023-04-20T06:50:36.751Z,39.70
2023-04-20T06:53:31.956Z,39.70
2023-04-20T06:56:25.300Z,39.80
2023-04-20T06:59:19.510Z,39.80
2023-04-20T07:02:12.376Z,39.70
2023-04-20T07:05:05.562Z,39.70
2023-04-20T07:08:03.170Z,39.80
2023-04-20T07:10:57.763Z,39.90
2023-04-20T07:13:51.354Z,40.00
2023-04-20T07:16:44.707Z,40.10
2023-04-20T07:19:37.637Z,40.00
2023-04-20T07:22:30.488Z,40.10
2023-04-20T07:25:23.243Z,40.00
2023-04-20T07:28:17.953Z,40.10
2023-04-20T07:31:11.450Z,40.00
2023-04-20T07:34:04.660Z,40.00
2023-04-20T07:36:57.667Z,39.90
2023-04-20T07:39:52.971Z,39.70
2023-04-20T07:42:46.282Z,39.60
2023-04-20T07:45:42.591Z,39.50
2023-04-20T07:48:35.724Z,39.50
2023-04-20T07:51:30.384Z,39.50
2023-04-20T07:54:23.585Z,39.40
2023-04-20T07:57:16.687Z,39.40
2023-04-20T08:00:12.727Z,39.50
2023-04-20T08:03:07.597Z,39.50
2023-04-20T08:06:00.713Z,39.50
2023-04-20T08:08:53.347Z,39.50
2023-04-20T08:11:46.487Z,39.60
2023-04-20T08:14:40.457Z,39.50
2023-04-20T08:17:34.158Z,39.60
2023-04-20T08:20:28.854Z,39.50
2023-04-20T08:23:27.502Z,39.60
2023-04-20T08:26:20.083Z,39.60
2023-04-20T08:29:13.566Z,39.60
2023-04-20T08:32:09.030Z,39.60
2023-04-20T08:35:02.611Z,39.60
2023-04-20T08:37:56.834Z,39.60
2023-04-20T08:40:50.738Z,39.60
2023-04-20T08:43:43.699Z,39.60
2023-04-20T08:46:37.332Z,39.60
2023-04-20T08:49:31.945Z,39.60
2023-04-20T08:52:25.582Z,39.60
2023-04-20T08:55:21.150Z,39.60
2023-04-20T08:58:14.700Z,39.60
2023-04-20T09:01:07.964Z,39.60
2023-04-20T09:04:01.811Z,39.60
2023-04-20T09:06:56.797Z,39.60
2023-04-20T09:09:59.935Z,39.60
2023-04-20T09:12:54.778Z,39.60
2023-04-20T09:15:47.362Z,40.20
2023-04-20T09:18:40.652Z,39.70
2023-04-20T09:21:33.635Z,39.60
2023-04-20T09:24:33.557Z,39.60
2023-04-20T09:27:27.312Z,39.60
2023-04-20T09:30:21.714Z,39.70
2023-04-20T09:33:15.588Z,39.80
2023-04-20T09:36:10.930Z,39.90
2023-04-20T09:39:07.430Z,39.80
2023-04-20T09:42:06.348Z,39.80
2023-04-20T09:44:59.744Z,40.40
2023-04-20T09:47:54.781Z,39.90
2023-04-20T09:50:51.240Z,40.40
2023-04-20T09:53:47.476Z,40.20
2023-04-20T09:56:41.400Z,40.50
2023-04-20T09:59:35.102Z,40.60
2023-04-20T10:02:28.799Z,40.40
2023-04-20T10:05:35.726Z,40.40
2023-04-20T10:08:28.386Z,40.00
2023-04-20T10:11:40.565Z,40.80
2023-04-20T10:14:42.974Z,39.90
2023-04-20T10:17:37.016Z,40.20
2023-04-20T10:20:30.888Z,40.30
2023-04-20T10:23:25.334Z,40.80
2023-04-20T10:26:18.419Z,41.10
2023-04-20T10:29:12.525Z,41.00
2023-04-20T10:32:06.014Z,41.40
2023-04-20T10:35:03.769Z,40.50
2023-04-20T10:37:56.917Z,40.50
2023-04-20T10:40:50.949Z,40.20
2023-04-20T10:43:44.794Z,40.30
2023-04-20T10:46:37.875Z,40.20
2023-04-20T10:49:32.360Z,40.10
2023-04-20T10:52:34.793Z,39.90
2023-04-20T10:55:27.786Z,39.80
2023-04-20T10:58:25.659Z,40.30
2023-04-20T11:01:18.912Z,39.60
2023-04-20T11:04:12.591Z,39.60
2023-04-20T11:07:08.688Z,40.10
2023-04-20T11:10:01.702Z,39.30
2023-04-20T11:12:55.622Z,39.60
2023-04-20T11:15:49.878Z,39.70
2023-04-20T11:18:53.386Z,39.70
2023-04-20T11:21:46.517Z,39.60
2023-04-20T11:24:41.189Z,39.60
2023-04-20T11:27:34.876Z,39.70
2023-04-20T11:30:38.548Z,39.80
2023-04-20T11:33:34.182Z,39.90
2023-04-20T11:36:29.477Z,39.80
2023-04-20T11:39:26.333Z,40.00
2023-04-20T11:42:19.342Z,39.90
2023-04-20T11:45:12.858Z,39.80
2023-04-20T11:48:06.824Z,39.80
2023-04-20T11:51:01.055Z,39.80
2023-04-20T11:53:54.606Z,39.70
2023-04-20T11:56:47.624Z,39.80
2023-04-20T11:59:43.008Z,39.70
2023-04-20T12:02:37.118Z,39.70
2023-04-20T12:05:30.680Z,39.70
2023-04-20T12:08:25.063Z,39.60
2023-04-20T12:11:18.351Z,39.70
2023-04-20T12:14:11.937Z,39.70
2023-04-20T12:17:06.060Z,39.60
2023-04-20T12:20:00.518Z,39.60
2023-04-20T12:22:53.347Z,39.40
2023-04-20T12:25:47.886Z,39.30
2023-04-20T12:28:40.789Z,39.40
2023-04-20T12:31:33.708Z,39.30
2023-04-20T12:34:26.688Z,39.30
2023-04-20T12:37:20.235Z,39.30
2023-04-20T12:40:14.354Z,39.20
2023-04-20T12:43:09.125Z,39.20
2023-04-20T12:46:03.005Z,39.20
2023-04-20T12:48:56.084Z,39.30
2023-04-20T12:51:49.869Z,39.20
2023-04-20T12:54:44.204Z,39.20
2023-04-20T12:57:38.905Z,38.80
2023-04-20T13:00:33.053Z,39.20
2023-04-20T13:03:27.093Z,39.30
2023-04-20T13:06:20.737Z,39.30
2023-04-20T13:09:13.944Z,39.40
2023-04-20T13:12:07.085Z,39.50
2023-04-20T13:15:00.890Z,39.50
2023-04-20T13:17:55.237Z,39.60
2023-04-20T13:20:49.220Z,39.60
2023-04-20T13:23:42.625Z,39.40
2023-04-20T13:26:35.872Z,39.30
2023-04-20T13:29:29.035Z,39.60
2023-04-20T13:32:21.723Z,39.70
2023-04-20T13:35:19.852Z,39.70
2023-04-20T13:38:12.558Z,39.70
2023-04-20T13:41:06.341Z,39.60
2023-04-20T13:44:01.650Z,39.30
2023-04-20T13:46:55.052Z,39.30
2023-04-20T13:49:49.011Z,39.30
2023-04-20T13:52:43.243Z,40.10
2023-04-20T13:55:37.076Z,39.70
2023-04-20T13:58:30.760Z,39.80
2023-04-20T14:01:25.714Z,40.00
2023-04-20T14:04:19.123Z,40.10
2023-04-20T14:07:12.529Z,40.30
2023-04-20T14:10:08.486Z,40.40
2023-04-20T14:13:01.758Z,41.40
2023-04-20T14:15:55.574Z,41.50
2023-04-20T14:18:48.873Z,41.20
2023-04-20T14:21:44.388Z,41.00
2023-04-20T14:24:37.741Z,40.80
2023-04-20T14:27:32.524Z,40.70
2023-04-20T14:30:26.189Z,40.60
2023-04-20T14:33:19.989Z,40.60
2023-04-20T14:36:12.910Z,40.60
2023-04-20T14:39:06.138Z,40.60
2023-04-20T14:42:00.114Z,40.50
2023-04-20T14:44:55.833Z,40.60
2023-04-20T14:47:52.844Z,40.50
2023-04-20T14:50:46.068Z,40.50
2023-04-20T14:53:39.018Z,40.50
2023-04-20T14:56:31.760Z,40.40
2023-04-20T14:59:26.245Z,40.40
2023-04-20T15:02:21.507Z,40.50
2023-04-20T15:05:14.849Z,40.40
2023-04-20T15:08:07.765Z,40.40
2023-04-20T15:11:01.942Z,40.40
2023-04-20T15:13:54.910Z,40.40
2023-04-20T15:16:47.902Z,40.40
2023-04-20T15:19:45.887Z,40.40
2023-04-20T15:22:38.486Z,40.40
2023-04-20T15:25:32.087Z,40.50
2023-04-20T15:28:25.014Z,40.40
2023-04-20T15:31:18.532Z,40.40
2023-04-20T15:34:15.023Z,40.50
2023-04-20T15:37:09.292Z,40.50
2023-04-20T15:40:04.260Z,40.40
2023-04-20T15:42:57.953Z,40.50
2023-04-20T15:45:51.394Z,40.50
2023-04-20T15:48:44.934Z,40.50
2023-04-20T15:51:39.291Z,40.50
2023-04-20T15:54:34.201Z,40.40
2023-04-20T15:57:28.222Z,40.50
2023-04-20T16:00:22.170Z,40.40
2023-04-20T16:03:15.294Z,40.50
2023-04-20T16:06:09.036Z,40.50
2023-04-20T16:09:02.057Z,40.50
2023-04-20T16:11:56.240Z,40.50
2023-04-20T16:14:51.269Z,40.50
2023-04-20T16:17:47.417Z,40.60
2023-04-20T16:20:41.554Z,40.60
2023-04-20T16:23:34.620Z,40.60
2023-04-20T16:26:28.009Z,40.60
2023-04-20T16:29:22.050Z,40.60
2023-04-20T16:32:14.745Z,40.60
2023-04-20T16:35:09.649Z,40.60
2023-04-20T16:38:02.876Z,40.60
2023-04-20T16:40:56.075Z,40.60
2023-04-20T16:43:51.300Z,40.60
2023-04-20T16:46:48.780Z,40.60
2023-04-20T16:49:42.074Z,41.20
2023-04-20T16:52:34.904Z,40.60
2023-04-20T16:55:27.919Z,40.60
2023-04-20T16:58:21.746Z,41.30
2023-04-20T17:01:15.111Z,40.60
2023-04-20T17:04:09.739Z,40.70
2023-04-20T17:07:03.005Z,40.70
2023-04-20T17:09:56.125Z,40.70
2023-04-20T17:12:50.417Z,40.70
2023-04-20T17:15:45.042Z,40.70
2023-04-20T17:18:40.502Z,40.70
2023-04-20T17:21:36.144Z,40.70
2023-04-20T17:24:29.039Z,40.70
2023-04-20T17:27:23.075Z,40.90
2023-04-20T17:30:16.187Z,40.70
2023-04-20T17:33:12.149Z,40.70
2023-04-20T17:36:05.319Z,40.80
2023-04-20T17:39:00.358Z,41.00
2023-04-20T17:41:53.900Z,41.00
2023-04-20T17:44:46.689Z,41.40
2023-04-20T17:47:40.258Z,41.60
2023-04-20T17:50:34.848Z,41.80
2023-04-20T17:53:27.964Z,42.00
2023-04-20T17:56:22.127Z,42.00
2023-04-20T17:59:14.918Z,42.50
2023-04-20T18:02:09.067Z,42.60
2023-04-20T18:05:02.036Z,42.60
2023-04-20T18:07:54.845Z,42.50
2023-04-20T18:10:48.511Z,42.60
2023-04-20T18:13:44.651Z,42.60
2023-04-20T18:16:37.959Z,42.70
2023-04-20T18:19:30.731Z,42.70
2023-04-20T18:22:24.417Z,42.70
2023-04-20T18:25:18.844Z,42.70
2023-04-20T18:28:12.093Z,42.70
2023-04-20T18:31:06.653Z,42.70
2023-04-20T18:34:00.050Z,42.70
2023-04-20T18:36:53.019Z,42.70
2023-04-20T18:39:46.579Z,42.80
2023-04-20T18:42:39.681Z,43.20
2023-04-20T18:45:33.413Z,43.30
2023-04-20T18:48:29.564Z,43.30
2023-04-20T18:51:23.510Z,44.00
2023-04-20T18:54:17.357Z,43.40
2023-04-20T18:57:11.046Z,43.50
2023-04-20T19:00:07.276Z,43.60
2023-04-20T19:02:59.916Z,43.60
2023-04-20T19:05:54.338Z,43.70
2023-04-20T19:08:48.132Z,43.80
2023-04-20T19:11:41.519Z,43.90
2023-04-20T19:14:35.046Z,43.90
2023-04-20T19:17:28.307Z,44.10
2023-04-20T19:20:21.509Z,44.30
2023-04-20T19:23:16.802Z,44.20
2023-04-20T19:26:10.052Z,44.00
2023-04-20T19:29:03.041Z,43.90
2023-04-20T19:31:55.895Z,43.80
2023-04-20T19:34:49.192Z,43.70
2023-04-20T19:37:42.254Z,43.50
2023-04-20T19:40:36.391Z,43.30
2023-04-20T19:43:31.936Z,43.20
2023-04-20T19:46:25.547Z,43.10
2023-04-20T19:49:19.337Z,43.60
2023-04-20T19:52:13.157Z,42.90
2023-04-20T19:55:07.630Z,42.90
2023-04-20T19:58:02.536Z,42.80
2023-04-20T20:00:56.269Z,42.70
2023-04-20T20:03:49.335Z,42.70
2023-04-20T20:06:43.932Z,42.60
2023-04-20T20:09:37.449Z,43.20
2023-04-20T20:12:31.564Z,42.60
2023-04-20T20:15:26.689Z,42.60
2023-04-20T20:18:20.349Z,42.60
2023-04-20T20:21:12.713Z,42.50
2023-04-20T20:24:06.212Z,42.60
2023-04-20T20:27:00.231Z,42.50
2023-04-20T20:29:52.898Z,42.40
2023-04-20T20:32:47.249Z,42.40
2023-04-20T20:35:39.924Z,42.40
2023-04-20T20:38:33.198Z,42.50
2023-04-20T20:41:26.372Z,42.40
2023-04-20T20:44:20.699Z,42.40
2023-04-20T20:47:14.202Z,42.30
2023-04-20T20:50:09.803Z,42.30
2023-04-20T20:53:03.148Z,42.30
2023-04-20T20:55:56.000Z,42.30
2023-04-20T20:58:49.364Z,42.30
2023-04-20T21:01:42.265Z,42.30
2023-04-20T21:04:35.219Z,42.30
2023-04-20T21:07:29.193Z,42.30
2023-04-20T21:10:22.080Z,42.30
2023-04-20T21:13:15.721Z,42.30
2023-04-20T21:16:09.184Z,42.30
2023-04-20T21:19:01.946Z,42.30
2023-04-20T21:21:55.358Z,42.20
2023-04-20T21:24:49.556Z,42.20
2023-04-20T21:27:43.339Z,42.30
2023-04-20T21:30:36.292Z,42.20
2023-04-20T21:33:29.193Z,42.20
2023-04-20T21:36:22.024Z,42.20
2023-04-20T21:39:15.201Z,43.40
2023-04-20T21:42:09.590Z,42.70
2023-04-20T21:45:03.109Z,42.80
2023-04-20T21:47:56.292Z,42.90
2023-04-20T21:50:49.058Z,43.00
2023-04-20T21:53:42.206Z,43.10
2023-04-20T21:56:35.260Z,43.20
2023-04-20T21:59:29.818Z,43.30
2023-04-20T22:02:23.238Z,43.20
2023-04-20T22:05:16.000Z,43.30
2023-04-20T22:08:09.053Z,43.40
2023-04-20T22:11:02.155Z,43.40
2023-04-20T22:13:57.139Z,44.10
2023-04-20T22:16:52.233Z,43.50
2023-04-20T22:19:45.722Z,43.50
2023-04-20T22:22:39.968Z,43.60
2023-04-20T22:25:33.123Z,43.70
2023-04-20T22:28:26.059Z,43.70
2023-04-20T22:31:18.890Z,43.80
2023-04-20T22:34:13.457Z,43.80
2023-04-20T22:37:06.292Z,43.90
2023-04-20T22:39:59.209Z,44.00
2023-04-20T22:42:52.396Z,44.10
2023-04-20T22:45:45.195Z,44.10
2023-04-20T22:48:38.327Z,44.00
2023-04-20T22:51:33.135Z,44.00
2023-04-20T22:54:26.086Z,44.10
2023-04-20T22:57:19.293Z,44.10
2023-04-20T23:00:13.841Z,44.10
2023-04-20T23:03:07.268Z,44.10
2023-04-20T23:06:00.472Z,44.10
2023-04-20T23:08:54.615Z,44.10
2023-04-20T23:11:48.989Z,44.00
2023-04-20T23:14:43.726Z,44.10
2023-04-20T23:17:37.158Z,44.10
2023-04-20T23:20:30.594Z,44.10
2023-04-20T23:23:24.179Z,44.10
2023-04-20T23:26:18.760Z,44.00
2023-04-20T23:29:12.215Z,44.00
2023-04-20T23:32:05.558Z,44.00
2023-04-20T23:34:59.104Z,44.00
2023-04-20T23:37:52.370Z,44.00
2023-04-20T23:40:45.431Z,44.00
2023-04-20T23:43:40.132Z,44.00
2023-04-20T23:46:34.320Z,44.00
2023-04-20T23:49:27.543Z,44.00
2023-04-20T23:52:20.246Z,44.10
2023-04-20T23:55:13.034Z,44.70
2023-04-20T23:58:06.357Z,44.20
